createdAt,value
2018-05-16T00:01:22.303Z,11.77
2018-05-16T00:03:49.807Z,11.27
2018-05-16T00:06:17.317Z,11.60
2018-05-16T00:08:45.085Z,10.40
2018-05-16T00:11:12.623Z,11.07
2018-05-16T00:13:40.127Z,10.03
2018-05-16T00:16:07.659Z,7.40
2018-05-16T00:18:35.183Z,7.63
2018-05-16T00:21:02.963Z,6.50
2018-05-16T00:23:30.464Z,7.10
2018-05-16T00:25:57.967Z,6.60
2018-05-16T00:28:25.459Z,6.60
2018-05-16T00:30:52.964Z,7.33
2018-05-16T00:33:20.470Z,7.70
2018-05-16T00:35:47.976Z,7.80
2018-05-16T00:38:15.491Z,7.20
2018-05-16T00:40:42.992Z,7.80
2018-05-16T00:43:10.522Z,8.53
2018-05-16T00:45:38.243Z,6.60
2018-05-16T00:48:05.821Z,8.80
2018-05-16T00:50:33.335Z,8.23
2018-05-16T00:53:00.840Z,7.83
2018-05-16T00:55:28.617Z,9.00
2018-05-16T00:57:56.164Z,10.13
2018-05-16T01:00:23.666Z,9.20
2018-05-16T01:02:51.175Z,10.07
2018-05-16T01:05:18.676Z,9.27
2018-05-16T01:07:46.200Z,7.77
2018-05-16T01:10:13.730Z,7.23
2018-05-16T01:12:41.239Z,5.63
2018-05-16T01:15:08.740Z,5.30
2018-05-16T01:17:36.253Z,4.87
2018-05-16T01:20:03.799Z,6.77
2018-05-16T01:22:31.346Z,6.40
2018-05-16T01:24:58.838Z,8.37
2018-05-16T01:27:26.644Z,6.33
2018-05-16T01:29:54.206Z,4.63
2018-05-16T01:32:21.748Z,3.80
2018-05-16T01:34:49.262Z,3.57
2018-05-16T01:37:16.770Z,3.50
2018-05-16T01:39:44.292Z,3.63
2018-05-16T01:42:11.864Z,2.20
2018-05-16T01:44:40.070Z,2.50
2018-05-16T01:47:07.882Z,2.73
2018-05-16T01:49:35.662Z,1.87
2018-05-16T01:52:03.176Z,4.00
2018-05-16T01:54:30.681Z,4.90
2018-05-16T01:56:58.190Z,5.67
2018-05-16T01:59:25.703Z,4.47
2018-05-16T02:01:53.448Z,3.63
2018-05-16T02:04:20.962Z,4.23
2018-05-16T02:06:48.459Z,2.37
2018-05-16T02:09:16.322Z,1.60
2018-05-16T02:11:43.844Z,2.60
2018-05-16T02:14:11.422Z,1.20
2018-05-16T02:16:39.052Z,1.20
2018-05-16T02:19:06.558Z,1.70
2018-05-16T02:21:34.535Z,2.70
2018-05-16T02:24:02.706Z,2.70
2018-05-16T02:26:30.216Z,1.30
2018-05-16T02:28:57.899Z,1.97
2018-05-16T02:31:25.629Z,2.80
2018-05-16T02:33:53.147Z,1.17
2018-05-16T02:36:20.695Z,1.50
2018-05-16T02:38:48.273Z,1.30
2018-05-16T02:41:15.856Z,1.47
2018-05-16T02:43:43.403Z,1.40
2018-05-16T02:46:10.911Z,1.10
2018-05-16T02:48:38.557Z,2.10
2018-05-16T02:51:06.115Z,4.70
2018-05-16T02:53:33.701Z,1.50
2018-05-16T02:56:01.417Z,1.53
2018-05-16T02:58:28.939Z,2.50
2018-05-16T03:00:56.707Z,0.97
2018-05-16T03:03:24.280Z,1.73
2018-05-16T03:05:51.788Z,4.50
2018-05-16T03:08:19.599Z,1.40
2018-05-16T03:10:47.165Z,1.00
2018-05-16T03:13:14.751Z,1.83
2018-05-16T03:15:42.328Z,1.20
2018-05-16T03:18:10.075Z,1.77
2018-05-16T03:20:37.796Z,1.77
2018-05-16T03:23:05.551Z,4.87
2018-05-16T03:25:33.104Z,1.47
2018-05-16T03:28:00.623Z,1.83
2018-05-16T03:30:28.143Z,1.50
2018-05-16T03:32:56.534Z,2.90
2018-05-16T03:35:24.080Z,1.03
2018-05-16T03:37:51.631Z,1.67
2018-05-16T03:40:19.267Z,1.30
2018-05-16T03:42:46.763Z,1.27
2018-05-16T03:45:14.284Z,1.60
2018-05-16T03:47:41.854Z,1.20
2018-05-16T03:50:09.354Z,2.73
2018-05-16T03:52:36.852Z,4.03
2018-05-16T03:55:05.380Z,7.03
2018-05-16T03:57:44.689Z,3.90
2018-05-16T04:00:24.064Z,2.07
2018-05-16T04:03:03.287Z,2.50
2018-05-16T04:05:30.794Z,4.10
2018-05-16T04:07:58.291Z,6.20
2018-05-16T04:10:25.794Z,3.83
2018-05-16T04:12:53.315Z,4.47
2018-05-16T04:15:20.832Z,3.93
2018-05-16T04:17:48.332Z,4.43
2018-05-16T04:20:15.859Z,3.30
2018-05-16T04:22:43.364Z,6.57
2018-05-16T04:25:10.862Z,4.53
2018-05-16T04:27:38.411Z,4.00
2018-05-16T04:30:05.966Z,3.80
2018-05-16T04:32:33.490Z,4.37
2018-05-16T04:35:01.008Z,4.63
2018-05-16T04:37:28.559Z,6.40
2018-05-16T04:39:56.379Z,7.80
2018-05-16T04:42:23.892Z,4.90
2018-05-16T04:44:51.387Z,8.00
2018-05-16T04:47:18.891Z,6.53
2018-05-16T04:49:46.399Z,5.93
2018-05-16T04:52:13.922Z,5.37
2018-05-16T04:54:41.432Z,5.50
2018-05-16T04:57:08.944Z,5.67
2018-05-16T04:59:36.562Z,6.17
2018-05-16T05:02:04.034Z,5.47
2018-05-16T05:04:31.544Z,3.50
2018-05-16T05:06:59.076Z,7.33
2018-05-16T05:09:26.591Z,5.13
2018-05-16T05:11:54.139Z,3.60
2018-05-16T05:14:21.723Z,3.97
2018-05-16T05:16:49.262Z,3.67
2018-05-16T05:19:16.777Z,6.10
2018-05-16T05:21:44.300Z,5.03
2018-05-16T05:24:11.803Z,2.53
2018-05-16T05:26:39.308Z,9.23
2018-05-16T05:29:06.835Z,11.90
2018-05-16T05:31:34.352Z,4.17
2018-05-16T05:34:01.859Z,2.90
2018-05-16T05:36:29.369Z,3.30
2018-05-16T05:38:56.990Z,3.87
2018-05-16T05:41:24.500Z,2.93
2018-05-16T05:43:52.095Z,5.50
2018-05-16T05:46:19.636Z,12.33
2018-05-16T05:48:47.140Z,5.50
2018-05-16T05:51:14.643Z,3.00
2018-05-16T05:53:42.144Z,6.30
2018-05-16T05:56:09.635Z,4.03
2018-05-16T05:58:37.143Z,3.87
2018-05-16T06:01:04.648Z,3.97
2018-05-16T06:03:32.152Z,5.53
2018-05-16T06:05:59.683Z,7.13
2018-05-16T06:08:27.187Z,7.93
2018-05-16T06:10:54.695Z,4.97
2018-05-16T06:13:22.235Z,4.77
2018-05-16T06:15:49.748Z,3.17
2018-05-16T06:18:17.259Z,5.00
2018-05-16T06:20:44.751Z,7.00
2018-05-16T06:23:12.248Z,3.47
2018-05-16T06:25:39.789Z,3.73
2018-05-16T06:28:07.298Z,8.07
2018-05-16T06:30:34.791Z,4.13
2018-05-16T06:33:02.292Z,4.20
2018-05-16T06:35:29.795Z,5.23
2018-05-16T06:37:57.305Z,10.30
2018-05-16T06:40:24.803Z,8.33
2018-05-16T06:42:52.342Z,4.60
2018-05-16T06:45:19.859Z,8.80
2018-05-16T06:47:47.415Z,8.37
2018-05-16T06:50:14.928Z,10.97
2018-05-16T06:52:43.199Z,6.73
2018-05-16T06:55:11.826Z,3.92
2018-05-16T06:57:39.376Z,4.40
2018-05-16T07:00:06.931Z,3.35
2018-05-16T07:02:34.540Z,4.78
2018-05-16T07:05:02.079Z,5.78
2018-05-16T07:07:29.612Z,3.03
2018-05-16T07:09:57.120Z,3.67
2018-05-16T07:12:24.630Z,3.47
2018-05-16T07:14:52.183Z,3.03
2018-05-16T07:17:19.720Z,3.10
2018-05-16T07:19:47.283Z,3.50
2018-05-16T07:22:14.804Z,6.15
2018-05-16T07:24:42.330Z,5.12
2018-05-16T07:27:09.875Z,3.70
2018-05-16T07:29:37.424Z,4.53
2018-05-16T07:32:05.009Z,4.55
2018-05-16T07:34:32.804Z,4.80
2018-05-16T07:37:00.323Z,5.15
2018-05-16T07:39:27.847Z,3.30
2018-05-16T07:41:55.405Z,7.53
2018-05-16T07:44:22.920Z,4.03
2018-05-16T07:46:50.479Z,3.50
2018-05-16T07:49:18.018Z,5.67
2018-05-16T07:51:45.561Z,5.50
2018-05-16T07:54:13.068Z,8.18
2018-05-16T07:56:40.614Z,5.53
2018-05-16T07:59:08.417Z,6.95
2018-05-16T08:01:36.276Z,5.68
2018-05-16T08:04:03.798Z,3.25
2018-05-16T08:06:31.346Z,4.35
2018-05-16T08:08:58.862Z,4.65
2018-05-16T08:11:26.381Z,4.55
2018-05-16T08:13:53.881Z,3.22
2018-05-16T08:16:21.403Z,6.27
2018-05-16T08:18:49.834Z,5.85
2018-05-16T08:21:18.205Z,5.07
2018-05-16T08:23:45.724Z,4.60
2018-05-16T08:26:13.276Z,4.28
2018-05-16T08:28:40.784Z,8.82
2018-05-16T08:31:08.349Z,7.10
2018-05-16T08:33:36.198Z,9.43
2018-05-16T08:36:04.282Z,4.18
2018-05-16T08:38:31.795Z,4.47
2018-05-16T08:40:59.344Z,3.65
2018-05-16T08:43:26.854Z,3.60
2018-05-16T08:45:54.697Z,4.03
2018-05-16T08:48:22.210Z,6.22
2018-05-16T08:50:49.723Z,7.82
2018-05-16T08:53:17.272Z,3.65
2018-05-16T08:55:44.844Z,4.95
2018-05-16T08:58:12.449Z,6.28
2018-05-16T09:00:39.960Z,6.72
2018-05-16T09:03:07.700Z,4.68
2018-05-16T09:05:35.262Z,3.78
2018-05-16T09:08:02.804Z,3.78
2018-05-16T09:10:30.314Z,4.40
2018-05-16T09:12:57.830Z,4.40
2018-05-16T09:15:25.418Z,8.55
2018-05-16T09:17:52.991Z,3.40
2018-05-16T09:20:21.135Z,3.50
2018-05-16T09:22:48.675Z,3.67
2018-05-16T09:25:17.492Z,4.47
2018-05-16T09:27:44.938Z,5.55
2018-05-16T09:30:12.514Z,3.75
2018-05-16T09:32:39.990Z,4.37
2018-05-16T09:35:07.501Z,3.28
2018-05-16T09:37:35.003Z,3.50
2018-05-16T09:40:02.515Z,3.45
2018-05-16T09:42:30.028Z,5.12
2018-05-16T09:44:57.535Z,3.78
2018-05-16T09:47:25.031Z,3.97
2018-05-16T09:49:52.800Z,4.62
2018-05-16T09:52:20.531Z,3.92
2018-05-16T09:54:48.054Z,5.15
2018-05-16T09:57:15.555Z,3.08
2018-05-16T09:59:43.071Z,3.60
2018-05-16T10:02:10.583Z,2.95
2018-05-16T10:04:38.091Z,5.82
2018-05-16T10:07:05.598Z,4.87
2018-05-16T10:09:33.100Z,3.40
2018-05-16T10:12:00.927Z,4.37
2018-05-16T10:14:28.468Z,4.57
2018-05-16T10:16:56.029Z,5.55
2018-05-16T10:19:24.774Z,4.28
2018-05-16T10:21:52.575Z,3.20
2018-05-16T10:24:20.270Z,3.42
2018-05-16T10:26:50.254Z,3.55
2018-05-16T10:29:17.849Z,3.70
2018-05-16T10:31:45.486Z,3.22
2018-05-16T10:34:13.616Z,3.22
2018-05-16T10:36:41.404Z,4.50
2018-05-16T10:39:09.037Z,4.32
2018-05-16T10:41:36.680Z,3.05
2018-05-16T10:44:04.132Z,4.40
2018-05-16T10:46:31.723Z,4.07
2018-05-16T10:48:59.248Z,2.65
2018-05-16T10:51:26.762Z,5.30
2018-05-16T10:53:54.647Z,2.50
2018-05-16T10:56:22.195Z,3.60
2018-05-16T10:58:49.694Z,3.15
2018-05-16T11:01:17.206Z,3.50
2018-05-16T11:03:44.731Z,6.75
2018-05-16T11:06:12.284Z,2.97
2018-05-16T11:08:39.838Z,5.10
2018-05-16T11:11:08.459Z,2.50
2018-05-16T11:13:36.251Z,2.50
2018-05-16T11:16:04.095Z,4.12
2018-05-16T11:18:31.682Z,2.78
2018-05-16T11:20:59.257Z,5.12
2018-05-16T11:23:26.770Z,5.60
2018-05-16T11:25:55.212Z,5.30
2018-05-16T11:28:22.798Z,5.72
2018-05-16T11:30:50.428Z,2.92
2018-05-16T11:33:18.176Z,3.75
2018-05-16T11:35:45.763Z,2.70
2018-05-16T11:38:13.561Z,2.70
2018-05-16T11:40:41.192Z,3.87
2018-05-16T11:43:08.816Z,3.17
2018-05-16T11:45:36.417Z,6.40
2018-05-16T11:48:03.991Z,2.80
2018-05-16T11:50:32.349Z,4.90
2018-05-16T11:52:59.990Z,3.45
2018-05-16T11:55:27.659Z,2.40
2018-05-16T11:57:55.163Z,2.45
2018-05-16T12:00:22.683Z,4.90
2018-05-16T12:02:50.322Z,2.30
2018-05-16T12:05:17.848Z,3.78
2018-05-16T12:07:45.362Z,2.25
2018-05-16T12:10:12.881Z,4.85
2018-05-16T12:12:40.428Z,3.03
2018-05-16T12:15:07.928Z,3.62
2018-05-16T12:17:35.728Z,3.00
2018-05-16T12:20:03.255Z,2.58
2018-05-16T12:22:30.771Z,3.78
2018-05-16T12:24:58.314Z,3.67
2018-05-16T12:27:26.045Z,2.28
2018-05-16T12:29:54.319Z,3.55
2018-05-16T12:32:22.595Z,2.50
2018-05-16T12:34:50.104Z,2.50
2018-05-16T12:37:17.634Z,3.70
2018-05-16T12:39:45.171Z,6.83
2018-05-16T12:42:12.743Z,5.53
2018-05-16T12:44:40.267Z,4.53
2018-05-16T12:47:07.833Z,4.43
2018-05-16T12:49:35.491Z,2.90
2018-05-16T12:52:03.016Z,3.45
2018-05-16T12:54:30.547Z,3.80
2018-05-16T12:56:58.048Z,2.37
2018-05-16T12:59:25.824Z,3.17
2018-05-16T13:01:53.735Z,3.75
2018-05-16T13:04:21.322Z,4.10
2018-05-16T13:06:48.935Z,2.75
2018-05-16T13:09:16.827Z,3.47
2018-05-16T13:11:44.377Z,3.05
2018-05-16T13:14:11.995Z,2.25
2018-05-16T13:16:39.549Z,3.45
2018-05-16T13:19:07.071Z,3.42
2018-05-16T13:21:35.933Z,3.50
2018-05-16T13:24:03.364Z,3.67
2018-05-16T13:26:30.897Z,3.75
2018-05-16T13:28:58.671Z,3.10
2018-05-16T13:31:26.216Z,2.67
2018-05-16T13:33:53.817Z,2.87
2018-05-16T13:36:21.452Z,2.22
2018-05-16T13:38:48.885Z,5.32
2018-05-16T13:41:16.435Z,3.83
2018-05-16T13:43:44.300Z,2.50
2018-05-16T13:46:11.835Z,2.37
2018-05-16T13:48:39.340Z,3.00
2018-05-16T13:51:06.862Z,3.13
2018-05-16T13:53:34.476Z,4.00
2018-05-16T13:56:01.981Z,2.63
2018-05-16T13:58:29.487Z,2.30
2018-05-16T14:00:57.015Z,3.77
2018-05-16T14:03:24.589Z,3.70
2018-05-16T14:05:52.143Z,2.73
2018-05-16T14:08:19.647Z,3.33
2018-05-16T14:10:47.212Z,1.90
2018-05-16T14:13:14.737Z,3.90
2018-05-16T14:15:42.284Z,3.67
2018-05-16T14:18:09.795Z,4.17
2018-05-16T14:20:37.335Z,2.23
2018-05-16T14:23:04.883Z,2.13
2018-05-16T14:25:32.700Z,2.57
2018-05-16T14:28:00.241Z,3.17
2018-05-16T14:30:28.011Z,3.00
2018-05-16T14:32:55.591Z,3.37
2018-05-16T14:35:23.160Z,2.87
2018-05-16T14:37:50.766Z,4.00
2018-05-16T14:40:18.265Z,4.23
2018-05-16T14:42:45.835Z,3.33
2018-05-16T14:45:14.496Z,3.90
2018-05-16T14:47:42.055Z,2.73
2018-05-16T14:50:09.612Z,3.23
2018-05-16T14:52:37.153Z,3.27
2018-05-16T14:55:04.713Z,3.83
2018-05-16T14:57:32.213Z,2.83
2018-05-16T14:59:59.790Z,2.93
2018-05-16T15:02:27.296Z,2.50
2018-05-16T15:04:54.820Z,3.17
2018-05-16T15:07:22.399Z,2.97
2018-05-16T15:09:49.945Z,3.53
2018-05-16T15:12:17.480Z,2.50
2018-05-16T15:14:45.079Z,2.23
2018-05-16T15:17:12.615Z,3.63
2018-05-16T15:19:40.129Z,2.57
2018-05-16T15:22:07.641Z,2.90
2018-05-16T15:24:35.382Z,3.93
2018-05-16T15:27:02.915Z,2.10
2018-05-16T15:29:30.468Z,3.17
2018-05-16T15:31:58.166Z,3.10
2018-05-16T15:34:25.749Z,3.10
2018-05-16T15:36:53.252Z,3.23
2018-05-16T15:39:20.825Z,3.60
2018-05-16T15:41:48.328Z,1.87
2018-05-16T15:44:16.289Z,2.40
2018-05-16T15:46:43.947Z,3.07
2018-05-16T15:49:13.577Z,3.40
2018-05-16T15:51:42.078Z,3.30
2018-05-16T15:54:09.675Z,2.43
2018-05-16T15:56:37.287Z,2.33
2018-05-16T15:59:04.970Z,1.87
2018-05-16T16:01:34.593Z,2.67
2018-05-16T16:04:03.478Z,2.20
2018-05-16T16:06:31.977Z,3.90
2018-05-16T16:09:01.289Z,1.97
2018-05-16T16:11:28.848Z,2.17
2018-05-16T16:13:56.463Z,4.10
2018-05-16T16:16:23.987Z,3.77
2018-05-16T16:18:51.495Z,6.27
2018-05-16T16:21:19.043Z,2.20
2018-05-16T16:23:46.588Z,3.90
2018-05-16T16:26:14.153Z,4.37
2018-05-16T16:28:41.686Z,3.93
2018-05-16T16:31:09.266Z,4.10
2018-05-16T16:33:36.763Z,6.33
2018-05-16T16:36:04.287Z,3.07
2018-05-16T16:38:31.807Z,3.30
2018-05-16T16:40:59.414Z,2.90
2018-05-16T16:43:26.943Z,3.47
2018-05-16T16:45:54.450Z,3.57
2018-05-16T16:48:21.952Z,4.13
2018-05-16T16:50:49.493Z,2.50
2018-05-16T16:53:17.012Z,3.50
2018-05-16T16:55:44.564Z,3.03
2018-05-16T16:58:12.151Z,3.53
2018-05-16T17:00:40.420Z,2.50
2018-05-16T17:03:08.731Z,4.00
2018-05-16T17:05:36.238Z,4.43
2018-05-16T17:08:03.755Z,2.87
2018-05-16T17:10:31.263Z,4.73
2018-05-16T17:12:58.759Z,3.57
2018-05-16T17:15:26.346Z,5.83
2018-05-16T17:17:53.855Z,3.20
2018-05-16T17:20:21.450Z,3.50
2018-05-16T17:22:48.894Z,4.00
2018-05-16T17:25:16.406Z,8.43
2018-05-16T17:27:43.957Z,9.40
2018-05-16T17:30:11.506Z,5.83
2018-05-16T17:32:39.032Z,4.10
2018-05-16T17:35:06.602Z,8.20
2018-05-16T17:37:34.107Z,11.20
2018-05-16T17:40:01.622Z,4.57
2018-05-16T17:42:29.219Z,4.33
2018-05-16T17:44:56.736Z,3.10
2018-05-16T17:47:24.271Z,5.97
2018-05-16T17:49:52.756Z,7.13
2018-05-16T17:52:20.259Z,6.40
2018-05-16T17:54:47.758Z,4.17
2018-05-16T17:57:15.315Z,4.17
2018-05-16T17:59:42.818Z,5.33
2018-05-16T18:02:10.335Z,4.80
2018-05-16T18:04:37.840Z,7.57
2018-05-16T18:07:05.577Z,6.13
2018-05-16T18:09:33.135Z,10.83
2018-05-16T18:12:00.656Z,3.60
2018-05-16T18:17:34.201Z,9.97
2018-05-16T18:20:01.768Z,7.80
2018-05-16T18:22:29.279Z,7.13
2018-05-16T18:24:56.799Z,7.90
2018-05-16T18:27:24.309Z,4.77
2018-05-16T18:29:51.807Z,4.03
2018-05-16T18:32:19.311Z,7.50
2018-05-16T18:34:46.901Z,12.07
2018-05-16T18:37:14.427Z,21.40
2018-05-16T18:39:42.026Z,11.07
2018-05-16T18:42:09.467Z,9.07
2018-05-16T18:44:36.998Z,10.70
2018-05-16T18:47:04.514Z,4.47
2018-05-16T18:49:32.076Z,4.73
2018-05-16T18:51:59.583Z,5.33
2018-05-16T18:54:27.092Z,3.33
2018-05-16T18:56:54.599Z,11.07
2018-05-16T18:59:22.191Z,10.73
2018-05-16T19:01:49.748Z,8.73
2018-05-16T19:04:17.660Z,8.17
2018-05-16T19:06:45.207Z,6.03
2018-05-16T19:09:12.753Z,5.50
2018-05-16T19:11:40.256Z,5.03
2018-05-16T19:14:08.722Z,9.00
2018-05-16T19:16:36.284Z,6.07
2018-05-16T19:19:03.830Z,5.70
2018-05-16T19:21:31.350Z,5.30
2018-05-16T19:23:58.846Z,4.20
2018-05-16T19:26:26.371Z,4.17
2018-05-16T19:28:54.664Z,7.40
2018-05-16T19:31:22.225Z,6.90
2018-05-16T19:33:49.795Z,5.30
2018-05-16T19:36:17.331Z,4.77
2018-05-16T19:38:44.839Z,4.10
2018-05-16T19:41:12.406Z,6.50
2018-05-16T19:43:40.008Z,4.23
2018-05-16T19:46:07.803Z,5.73
2018-05-16T19:48:35.308Z,7.97
2018-05-16T19:51:03.047Z,7.60
2018-05-16T19:53:32.810Z,4.60
2018-05-16T19:56:00.521Z,4.67
2018-05-16T19:58:28.245Z,4.30
2018-05-16T20:00:56.990Z,6.10
2018-05-16T20:03:24.508Z,9.43
2018-05-16T20:05:52.062Z,6.27
2018-05-16T20:08:19.612Z,9.47
2018-05-16T20:10:47.136Z,5.20
2018-05-16T20:13:14.670Z,5.20
2018-05-16T20:15:42.327Z,10.23
2018-05-16T20:18:10.018Z,7.67
2018-05-16T20:20:38.003Z,6.37
2018-05-16T20:23:05.664Z,8.63
2018-05-16T20:25:33.262Z,10.70
2018-05-16T20:28:00.820Z,5.53
2018-05-16T20:30:28.601Z,8.50
2018-05-16T20:32:56.143Z,14.33
2018-05-16T20:35:23.658Z,11.70
2018-05-16T20:37:51.685Z,7.20
2018-05-16T20:40:19.224Z,13.67
2018-05-16T20:42:46.731Z,13.77
2018-05-16T20:45:14.927Z,7.67
2018-05-16T20:47:42.430Z,12.83
2018-05-16T20:50:09.962Z,8.53
2018-05-16T20:52:37.488Z,8.67
2018-05-16T20:55:05.035Z,9.53
2018-05-16T20:57:32.549Z,5.67
2018-05-16T21:00:00.106Z,6.70
2018-05-16T21:02:27.623Z,7.53
2018-05-16T21:04:55.141Z,7.80
2018-05-16T21:07:22.718Z,9.97
2018-05-16T21:09:50.234Z,13.70
2018-05-16T21:12:17.746Z,8.87
2018-05-16T21:14:45.247Z,9.80
2018-05-16T21:17:12.746Z,7.33
2018-05-16T21:19:40.248Z,7.07
2018-05-16T21:22:07.767Z,11.35
2018-05-16T21:24:35.300Z,8.30
2018-05-16T21:27:02.896Z,6.97
2018-05-16T21:29:30.412Z,5.43
2018-05-16T21:31:57.913Z,6.70
2018-05-16T21:34:25.524Z,6.37
2018-05-16T21:36:53.091Z,7.87
2018-05-16T21:39:20.641Z,7.40
2018-05-16T21:41:48.191Z,5.30
2018-05-16T21:44:15.686Z,8.93
2018-05-16T21:46:43.208Z,15.07
2018-05-16T21:49:10.737Z,10.13
2018-05-16T21:51:38.287Z,7.93
2018-05-16T21:54:05.864Z,8.43
2018-05-16T21:56:33.371Z,6.37
2018-05-16T21:59:00.924Z,6.00
2018-05-16T22:01:28.474Z,7.97
2018-05-16T22:03:56.036Z,10.23
2018-05-16T22:06:23.551Z,5.50
2018-05-16T22:08:51.081Z,4.33
2018-05-16T22:11:18.590Z,4.20
2018-05-16T22:13:46.157Z,9.07
2018-05-16T22:16:13.664Z,8.80
2018-05-16T22:18:41.210Z,7.63
2018-05-16T22:21:08.779Z,10.53
2018-05-16T22:23:36.300Z,6.53
2018-05-16T22:26:03.798Z,4.87
2018-05-16T22:28:31.359Z,7.23
2018-05-16T22:31:04.304Z,7.50
2018-05-16T22:33:37.292Z,4.77
2018-05-16T22:36:10.367Z,5.10
2018-05-16T22:38:43.483Z,7.47
2018-05-16T22:41:16.431Z,5.90
2018-05-16T22:43:49.623Z,8.07
2018-05-16T22:46:17.122Z,16.43
2018-05-16T22:48:44.658Z,15.33
2018-05-16T22:51:12.158Z,6.70
2018-05-16T22:53:39.658Z,6.70
2018-05-16T22:56:07.218Z,5.67
2018-05-16T22:58:34.738Z,7.43
2018-05-16T23:01:02.237Z,6.87
2018-05-16T23:03:30.136Z,7.17
2018-05-16T23:05:57.634Z,5.90
2018-05-16T23:08:25.197Z,4.47
2018-05-16T23:10:52.704Z,6.10
2018-05-16T23:13:20.247Z,6.53
2018-05-16T23:15:47.819Z,7.23
2018-05-16T23:18:15.355Z,7.37
2018-05-16T23:20:42.867Z,5.33
2018-05-16T23:23:10.381Z,6.73
2018-05-16T23:25:37.898Z,7.23
2018-05-16T23:28:05.462Z,5.30
2018-05-16T23:30:33.051Z,6.20
2018-05-16T23:33:00.568Z,6.87
2018-05-16T23:35:28.439Z,4.00
2018-05-16T23:37:55.957Z,3.40
2018-05-16T23:40:23.468Z,6.23
2018-05-16T23:42:50.982Z,3.83
2018-05-16T23:45:18.494Z,2.87
2018-05-16T23:47:46.315Z,3.17
2018-05-16T23:50:13.815Z,4.57
2018-05-16T23:52:41.316Z,5.30
2018-05-16T23:55:08.820Z,5.73
2018-05-16T23:57:36.327Z,4.53
